sensor_id;sensor_type;location;lat;lon;timestamp;temperature;humidity
21559;DHT22;10940;48.890;8.240;2024-02-14T00:02:07;5.50;99.90
21559;DHT22;10940;48.890;8.240;2024-02-14T00:04:33;5.60;99.90
21559;DHT22;10940;48.890;8.240;2024-02-14T00:06:58;5.60;99.90
21559;DHT22;10940;48.890;8.240;2024-02-14T00:09:24;5.60;99.90
21559;DHT22;10940;48.890;8.240;2024-02-14T00:11:50;5.60;99.90
21559;DHT22;10940;48.890;8.240;2024-02-14T00:14:15;5.60;99.90
21559;DHT22;10940;48.890;8.240;2024-02-14T00:16:41;5.50;99.90
21559;DHT22;10940;48.890;8.240;2024-02-14T00:19:07;5.70;99.90
21559;DHT22;10940;48.890;8.240;2024-02-14T00:21:32;5.70;99.90
21559;DHT22;10940;48.890;8.240;2024-02-14T00:24:00;5.70;99.90
21559;DHT22;10940;48.890;8.240;2024-02-14T00:26:25;5.60;99.90
21559;DHT22;10940;48.890;8.240;2024-02-14T00:28:52;5.60;99.90
21559;DHT22;10940;48.890;8.240;2024-02-14T00:31:17;5.70;99.90
21559;DHT22;10940;48.890;8.240;2024-02-14T00:33:43;5.70;99.90
21559;DHT22;10940;48.890;8.240;2024-02-14T00:36:10;5.70;99.90
21559;DHT22;10940;48.890;8.240;2024-02-14T00:38:36;5.70;99.90
21559;DHT22;10940;48.890;8.240;2024-02-14T00:41:01;5.70;99.90
21559;DHT22;10940;48.890;8.240;2024-02-14T00:43:27;5.70;99.90
21559;DHT22;10940;48.890;8.240;2024-02-14T00:45:53;5.80;99.90
21559;DHT22;10940;48.890;8.240;2024-02-14T00:48:19;5.80;99.90
21559;DHT22;10940;48.890;8.240;2024-02-14T00:50:44;5.80;99.90
21559;DHT22;10940;48.890;8.240;2024-02-14T00:53:10;5.80;99.90
21559;DHT22;10940;48.890;8.240;2024-02-14T00:55:36;5.80;99.90
21559;DHT22;10940;48.890;8.240;2024-02-14T00:58:01;5.80;99.90
21559;DHT22;10940;48.890;8.240;2024-02-14T01:00:27;5.80;99.90
21559;DHT22;10940;48.890;8.240;2024-02-14T01:02:53;5.90;99.90
21559;DHT22;10940;48.890;8.240;2024-02-14T01:05:19;5.90;99.90
21559;DHT22;10940;48.890;8.240;2024-02-14T01:07:44;5.80;99.90
21559;DHT22;10940;48.890;8.240;2024-02-14T01:10:11;5.90;99.90
21559;DHT22;10940;48.890;8.240;2024-02-14T01:12:37;6.00;99.90
21559;DHT22;10940;48.890;8.240;2024-02-14T01:15:03;6.00;99.90
21559;DHT22;10940;48.890;8.240;2024-02-14T01:17:28;6.00;99.90
21559;DHT22;10940;48.890;8.240;2024-02-14T01:19:54;6.00;99.90
21559;DHT22;10940;48.890;8.240;2024-02-14T01:22:20;6.00;99.90
21559;DHT22;10940;48.890;8.240;2024-02-14T01:24:46;6.00;99.90
21559;DHT22;10940;48.890;8.240;2024-02-14T01:27:12;6.00;99.90
21559;DHT22;10940;48.890;8.240;2024-02-14T01:29:38;6.00;99.90
21559;DHT22;10940;48.890;8.240;2024-02-14T01:32:03;5.90;99.90
21559;DHT22;10940;48.890;8.240;2024-02-14T01:34:29;5.90;99.90
21559;DHT22;10940;48.890;8.240;2024-02-14T01:36:55;5.90;99.90
21559;DHT22;10940;48.890;8.240;2024-02-14T01:39:21;5.80;99.90
21559;DHT22;10940;48.890;8.240;2024-02-14T01:41:48;5.80;99.90
21559;DHT22;10940;48.890;8.240;2024-02-14T01:44:17;5.80;99.90
21559;DHT22;10940;48.890;8.240;2024-02-14T01:46:44;5.80;99.90
21559;DHT22;10940;48.890;8.240;2024-02-14T01:49:11;5.80;99.90
21559;DHT22;10940;48.890;8.240;2024-02-14T01:51:38;5.80;99.90
21559;DHT22;10940;48.890;8.240;2024-02-14T01:54:05;5.80;99.90
21559;DHT22;10940;48.890;8.240;2024-02-14T01:56:31;5.80;99.90
21559;DHT22;10940;48.890;8.240;2024-02-14T01:58:59;5.80;99.90
21559;DHT22;10940;48.890;8.240;2024-02-14T02:01:25;5.80;99.90
21559;DHT22;10940;48.890;8.240;2024-02-14T02:03:51;5.80;99.90
21559;DHT22;10940;48.890;8.240;2024-02-14T02:06:16;5.80;99.90
21559;DHT22;10940;48.890;8.240;2024-02-14T02:08:45;5.70;99.90
21559;DHT22;10940;48.890;8.240;2024-02-14T02:11:11;5.70;99.90
21559;DHT22;10940;48.890;8.240;2024-02-14T02:13:36;5.70;99.90
21559;DHT22;10940;48.890;8.240;2024-02-14T02:16:05;5.60;99.90
21559;DHT22;10940;48.890;8.240;2024-02-14T02:18:31;5.50;99.90
21559;DHT22;10940;48.890;8.240;2024-02-14T02:20:57;5.50;99.90
21559;DHT22;10940;48.890;8.240;2024-02-14T02:23:23;5.40;99.90
21559;DHT22;10940;48.890;8.240;2024-02-14T02:25:48;5.40;99.90
21559;DHT22;10940;48.890;8.240;2024-02-14T02:28:14;5.30;99.90
21559;DHT22;10940;48.890;8.240;2024-02-14T02:30:40;5.30;99.90
21559;DHT22;10940;48.890;8.240;2024-02-14T02:33:06;5.20;99.90
21559;DHT22;10940;48.890;8.240;2024-02-14T02:35:33;5.20;99.90
21559;DHT22;10940;48.890;8.240;2024-02-14T02:37:59;5.10;99.90
21559;DHT22;10940;48.890;8.240;2024-02-14T02:40:25;5.10;99.90
21559;DHT22;10940;48.890;8.240;2024-02-14T02:42:53;5.00;99.90
21559;DHT22;10940;48.890;8.240;2024-02-14T02:45:18;5.10;99.90
21559;DHT22;10940;48.890;8.240;2024-02-14T02:47:44;5.00;99.90
21559;DHT22;10940;48.890;8.240;2024-02-14T02:50:10;5.10;99.90
21559;DHT22;10940;48.890;8.240;2024-02-14T02:52:35;5.10;99.90
21559;DHT22;10940;48.890;8.240;2024-02-14T02:55:01;5.20;99.90
21559;DHT22;10940;48.890;8.240;2024-02-14T02:57:28;5.40;99.90
21559;DHT22;10940;48.890;8.240;2024-02-14T02:59:54;5.50;99.90
21559;DHT22;10940;48.890;8.240;2024-02-14T03:02:20;5.60;99.90
21559;DHT22;10940;48.890;8.240;2024-02-14T03:04:46;5.80;99.90
21559;DHT22;10940;48.890;8.240;2024-02-14T03:07:12;6.10;99.90
21559;DHT22;10940;48.890;8.240;2024-02-14T03:09:38;6.30;99.90
21559;DHT22;10940;48.890;8.240;2024-02-14T03:12:04;6.50;99.90
21559;DHT22;10940;48.890;8.240;2024-02-14T03:14:31;6.70;99.90
21559;DHT22;10940;48.890;8.240;2024-02-14T03:17:04;6.80;99.90
21559;DHT22;10940;48.890;8.240;2024-02-14T03:19:30;6.90;99.90
21559;DHT22;10940;48.890;8.240;2024-02-14T03:21:56;7.00;99.90
21559;DHT22;10940;48.890;8.240;2024-02-14T03:24:22;7.20;99.90
21559;DHT22;10940;48.890;8.240;2024-02-14T03:26:51;7.20;99.90
21559;DHT22;10940;48.890;8.240;2024-02-14T03:29:17;7.40;99.90
21559;DHT22;10940;48.890;8.240;2024-02-14T03:31:45;7.40;99.90
21559;DHT22;10940;48.890;8.240;2024-02-14T03:34:11;7.50;99.90
21559;DHT22;10940;48.890;8.240;2024-02-14T03:36:37;7.60;99.90
21559;DHT22;10940;48.890;8.240;2024-02-14T03:39:03;7.60;99.90
21559;DHT22;10940;48.890;8.240;2024-02-14T03:41:30;7.70;99.90
21559;DHT22;10940;48.890;8.240;2024-02-14T03:43:55;7.70;99.90
21559;DHT22;10940;48.890;8.240;2024-02-14T03:46:24;7.80;99.90
21559;DHT22;10940;48.890;8.240;2024-02-14T03:48:49;7.90;99.90
21559;DHT22;10940;48.890;8.240;2024-02-14T03:51:15;7.90;99.90
21559;DHT22;10940;48.890;8.240;2024-02-14T03:53:41;8.00;99.90
21559;DHT22;10940;48.890;8.240;2024-02-14T03:56:07;8.10;99.90
21559;DHT22;10940;48.890;8.240;2024-02-14T03:58:33;8.20;99.90
21559;DHT22;10940;48.890;8.240;2024-02-14T04:01:03;8.20;99.90
21559;DHT22;10940;48.890;8.240;2024-02-14T04:03:29;8.30;99.90
21559;DHT22;10940;48.890;8.240;2024-02-14T04:05:55;8.30;99.90
21559;DHT22;10940;48.890;8.240;2024-02-14T04:08:20;8.40;99.90
21559;DHT22;10940;48.890;8.240;2024-02-14T04:10:47;8.40;99.90
21559;DHT22;10940;48.890;8.240;2024-02-14T04:13:15;8.50;99.90
21559;DHT22;10940;48.890;8.240;2024-02-14T04:15:41;8.50;99.90
21559;DHT22;10940;48.890;8.240;2024-02-14T04:18:08;8.50;99.90
21559;DHT22;10940;48.890;8.240;2024-02-14T04:20:34;8.50;99.90
21559;DHT22;10940;48.890;8.240;2024-02-14T04:23:00;8.50;99.90
21559;DHT22;10940;48.890;8.240;2024-02-14T04:25:26;8.60;99.90
21559;DHT22;10940;48.890;8.240;2024-02-14T04:27:51;8.70;99.90
21559;DHT22;10940;48.890;8.240;2024-02-14T04:30:17;8.80;99.90
21559;DHT22;10940;48.890;8.240;2024-02-14T04:32:42;8.80;99.90
21559;DHT22;10940;48.890;8.240;2024-02-14T04:35:09;8.80;99.90
21559;DHT22;10940;48.890;8.240;2024-02-14T04:37:34;8.80;99.90
21559;DHT22;10940;48.890;8.240;2024-02-14T04:40:00;8.80;99.90
21559;DHT22;10940;48.890;8.240;2024-02-14T04:42:26;8.80;99.90
21559;DHT22;10940;48.890;8.240;2024-02-14T04:44:52;8.90;99.90
21559;DHT22;10940;48.890;8.240;2024-02-14T04:47:17;8.90;99.90
21559;DHT22;10940;48.890;8.240;2024-02-14T04:49:43;8.90;99.90
21559;DHT22;10940;48.890;8.240;2024-02-14T04:52:08;8.90;99.90
21559;DHT22;10940;48.890;8.240;2024-02-14T04:54:34;8.90;99.90
21559;DHT22;10940;48.890;8.240;2024-02-14T04:56:59;8.90;99.90
21559;DHT22;10940;48.890;8.240;2024-02-14T04:59:25;8.90;99.90
21559;DHT22;10940;48.890;8.240;2024-02-14T05:01:51;8.90;99.90
21559;DHT22;10940;48.890;8.240;2024-02-14T05:04:18;8.90;99.90
21559;DHT22;10940;48.890;8.240;2024-02-14T05:06:44;9.00;99.90
21559;DHT22;10940;48.890;8.240;2024-02-14T05:09:10;8.90;99.90
21559;DHT22;10940;48.890;8.240;2024-02-14T05:11:36;8.90;99.90
21559;DHT22;10940;48.890;8.240;2024-02-14T05:14:02;8.90;99.90
21559;DHT22;10940;48.890;8.240;2024-02-14T05:16:29;9.00;99.90
21559;DHT22;10940;48.890;8.240;2024-02-14T05:18:54;8.90;99.90
21559;DHT22;10940;48.890;8.240;2024-02-14T05:21:20;9.00;99.90
21559;DHT22;10940;48.890;8.240;2024-02-14T05:23:47;9.00;99.90
21559;DHT22;10940;48.890;8.240;2024-02-14T05:26:12;9.00;99.90
21559;DHT22;10940;48.890;8.240;2024-02-14T05:28:38;9.00;99.90
21559;DHT22;10940;48.890;8.240;2024-02-14T05:31:04;9.00;99.90
21559;DHT22;10940;48.890;8.240;2024-02-14T05:33:30;9.10;99.90
21559;DHT22;10940;48.890;8.240;2024-02-14T05:35:56;9.10;99.90
21559;DHT22;10940;48.890;8.240;2024-02-14T05:38:21;9.10;99.90
21559;DHT22;10940;48.890;8.240;2024-02-14T05:40:48;9.10;99.90
21559;DHT22;10940;48.890;8.240;2024-02-14T05:43:14;9.20;99.90
21559;DHT22;10940;48.890;8.240;2024-02-14T05:45:40;9.20;99.90
21559;DHT22;10940;48.890;8.240;2024-02-14T05:48:07;9.20;99.90
21559;DHT22;10940;48.890;8.240;2024-02-14T05:50:33;9.20;99.90
21559;DHT22;10940;48.890;8.240;2024-02-14T05:52:59;9.20;99.90
21559;DHT22;10940;48.890;8.240;2024-02-14T05:55:25;9.20;99.90
21559;DHT22;10940;48.890;8.240;2024-02-14T05:57:51;9.30;99.90
21559;DHT22;10940;48.890;8.240;2024-02-14T06:00:18;9.30;99.90
21559;DHT22;10940;48.890;8.240;2024-02-14T06:02:44;9.30;99.90
21559;DHT22;10940;48.890;8.240;2024-02-14T06:05:10;9.30;99.90
21559;DHT22;10940;48.890;8.240;2024-02-14T06:07:42;9.30;99.90
21559;DHT22;10940;48.890;8.240;2024-02-14T06:10:12;9.30;99.90
21559;DHT22;10940;48.890;8.240;2024-02-14T06:12:38;9.30;99.90
21559;DHT22;10940;48.890;8.240;2024-02-14T06:15:06;9.20;99.90
21559;DHT22;10940;48.890;8.240;2024-02-14T06:17:33;9.20;99.90
21559;DHT22;10940;48.890;8.240;2024-02-14T06:19:58;9.30;99.90
21559;DHT22;10940;48.890;8.240;2024-02-14T06:22:24;9.20;99.90
21559;DHT22;10940;48.890;8.240;2024-02-14T06:24:50;9.20;99.90
21559;DHT22;10940;48.890;8.240;2024-02-14T06:27:16;9.20;99.90
21559;DHT22;10940;48.890;8.240;2024-02-14T06:29:42;9.10;99.90
21559;DHT22;10940;48.890;8.240;2024-02-14T06:32:08;9.10;99.90
21559;DHT22;10940;48.890;8.240;2024-02-14T06:34:33;9.10;99.90
21559;DHT22;10940;48.890;8.240;2024-02-14T06:36:59;9.10;99.90
21559;DHT22;10940;48.890;8.240;2024-02-14T06:39:24;9.00;99.90
21559;DHT22;10940;48.890;8.240;2024-02-14T06:41:50;9.00;99.90
21559;DHT22;10940;48.890;8.240;2024-02-14T06:44:16;8.90;99.90
21559;DHT22;10940;48.890;8.240;2024-02-14T06:46:41;8.90;99.90
21559;DHT22;10940;48.890;8.240;2024-02-14T06:49:08;8.90;99.90
21559;DHT22;10940;48.890;8.240;2024-02-14T06:51:34;8.90;99.90
21559;DHT22;10940;48.890;8.240;2024-02-14T06:53:59;8.90;99.90
21559;DHT22;10940;48.890;8.240;2024-02-14T06:56:25;8.90;99.90
21559;DHT22;10940;48.890;8.240;2024-02-14T06:58:50;8.90;99.90
21559;DHT22;10940;48.890;8.240;2024-02-14T07:01:19;8.90;99.90
21559;DHT22;10940;48.890;8.240;2024-02-14T07:03:48;8.90;99.90
21559;DHT22;10940;48.890;8.240;2024-02-14T07:06:14;8.90;99.90
21559;DHT22;10940;48.890;8.240;2024-02-14T07:08:43;8.90;99.90
21559;DHT22;10940;48.890;8.240;2024-02-14T07:11:09;8.90;99.90
21559;DHT22;10940;48.890;8.240;2024-02-14T07:13:34;8.90;99.90
21559;DHT22;10940;48.890;8.240;2024-02-14T07:16:00;8.90;99.90
21559;DHT22;10940;48.890;8.240;2024-02-14T07:18:26;9.00;99.90
21559;DHT22;10940;48.890;8.240;2024-02-14T07:20:52;9.00;99.90
21559;DHT22;10940;48.890;8.240;2024-02-14T07:23:18;8.90;99.90
21559;DHT22;10940;48.890;8.240;2024-02-14T07:25:44;8.90;99.90
21559;DHT22;10940;48.890;8.240;2024-02-14T07:28:10;9.00;99.90
21559;DHT22;10940;48.890;8.240;2024-02-14T07:30:36;9.00;99.90
21559;DHT22;10940;48.890;8.240;2024-02-14T07:33:01;9.00;99.90
21559;DHT22;10940;48.890;8.240;2024-02-14T07:35:27;8.90;99.90
21559;DHT22;10940;48.890;8.240;2024-02-14T07:37:52;9.00;99.90
21559;DHT22;10940;48.890;8.240;2024-02-14T07:40:19;9.00;99.90
21559;DHT22;10940;48.890;8.240;2024-02-14T07:42:44;9.00;99.90
21559;DHT22;10940;48.890;8.240;2024-02-14T07:45:10;9.00;99.90
21559;DHT22;10940;48.890;8.240;2024-02-14T07:47:35;9.10;99.90
21559;DHT22;10940;48.890;8.240;2024-02-14T07:50:01;9.10;99.90
21559;DHT22;10940;48.890;8.240;2024-02-14T07:52:27;9.20;99.90
21559;DHT22;10940;48.890;8.240;2024-02-14T07:54:53;9.20;99.90
21559;DHT22;10940;48.890;8.240;2024-02-14T07:57:21;9.30;99.90
21559;DHT22;10940;48.890;8.240;2024-02-14T07:59:47;9.30;99.90
21559;DHT22;10940;48.890;8.240;2024-02-14T08:02:13;9.30;99.90
21559;DHT22;10940;48.890;8.240;2024-02-14T08:04:39;9.40;99.90
21559;DHT22;10940;48.890;8.240;2024-02-14T08:07:04;9.50;99.90
21559;DHT22;10940;48.890;8.240;2024-02-14T08:09:30;9.50;99.90
21559;DHT22;10940;48.890;8.240;2024-02-14T08:11:56;9.50;99.90
21559;DHT22;10940;48.890;8.240;2024-02-14T08:14:21;9.60;99.90
21559;DHT22;10940;48.890;8.240;2024-02-14T08:16:47;9.60;99.90
21559;DHT22;10940;48.890;8.240;2024-02-14T08:19:12;9.70;99.90
21559;DHT22;10940;48.890;8.240;2024-02-14T08:21:38;9.70;99.90
21559;DHT22;10940;48.890;8.240;2024-02-14T08:24:04;9.80;99.90
21559;DHT22;10940;48.890;8.240;2024-02-14T08:26:30;9.80;99.90
21559;DHT22;10940;48.890;8.240;2024-02-14T08:28:57;9.80;99.90
21559;DHT22;10940;48.890;8.240;2024-02-14T08:31:23;9.80;99.90
21559;DHT22;10940;48.890;8.240;2024-02-14T08:33:49;10.00;99.90
21559;DHT22;10940;48.890;8.240;2024-02-14T08:36:14;9.90;99.90
21559;DHT22;10940;48.890;8.240;2024-02-14T08:38:42;10.00;99.90
21559;DHT22;10940;48.890;8.240;2024-02-14T08:41:08;10.00;99.90
21559;DHT22;10940;48.890;8.240;2024-02-14T08:43:33;10.00;99.90
21559;DHT22;10940;48.890;8.240;2024-02-14T08:45:59;10.10;99.90
21559;DHT22;10940;48.890;8.240;2024-02-14T08:48:25;10.10;99.90
21559;DHT22;10940;48.890;8.240;2024-02-14T08:50:52;10.10;99.90
21559;DHT22;10940;48.890;8.240;2024-02-14T08:53:18;10.20;99.90
21559;DHT22;10940;48.890;8.240;2024-02-14T08:55:44;10.20;99.90
21559;DHT22;10940;48.890;8.240;2024-02-14T08:58:10;10.30;99.90
21559;DHT22;10940;48.890;8.240;2024-02-14T09:00:36;10.40;99.90
21559;DHT22;10940;48.890;8.240;2024-02-14T09:03:03;10.40;99.90
21559;DHT22;10940;48.890;8.240;2024-02-14T09:05:28;10.50;99.90
21559;DHT22;10940;48.890;8.240;2024-02-14T09:07:54;10.50;99.90
21559;DHT22;10940;48.890;8.240;2024-02-14T09:10:20;10.50;99.90
21559;DHT22;10940;48.890;8.240;2024-02-14T09:12:47;10.50;99.90
21559;DHT22;10940;48.890;8.240;2024-02-14T09:15:13;10.60;99.90
21559;DHT22;10940;48.890;8.240;2024-02-14T09:17:39;10.60;99.90
21559;DHT22;10940;48.890;8.240;2024-02-14T09:20:08;10.60;99.90
21559;DHT22;10940;48.890;8.240;2024-02-14T09:22:38;10.60;99.90
21559;DHT22;10940;48.890;8.240;2024-02-14T09:25:04;10.70;99.90
21559;DHT22;10940;48.890;8.240;2024-02-14T09:27:32;10.70;99.90
21559;DHT22;10940;48.890;8.240;2024-02-14T09:29:58;10.70;99.90
21559;DHT22;10940;48.890;8.240;2024-02-14T09:32:24;10.80;99.90
21559;DHT22;10940;48.890;8.240;2024-02-14T09:34:50;10.80;99.90
21559;DHT22;10940;48.890;8.240;2024-02-14T09:37:16;10.90;99.90
21559;DHT22;10940;48.890;8.240;2024-02-14T09:39:42;10.90;99.90
21559;DHT22;10940;48.890;8.240;2024-02-14T09:42:11;10.90;99.90
21559;DHT22;10940;48.890;8.240;2024-02-14T09:44:38;10.90;99.90
21559;DHT22;10940;48.890;8.240;2024-02-14T09:47:05;11.00;99.90
21559;DHT22;10940;48.890;8.240;2024-02-14T09:49:31;11.00;99.90
21559;DHT22;10940;48.890;8.240;2024-02-14T09:51:59;11.10;99.90
21559;DHT22;10940;48.890;8.240;2024-02-14T09:54:26;11.20;99.90
21559;DHT22;10940;48.890;8.240;2024-02-14T09:56:52;11.30;99.90
21559;DHT22;10940;48.890;8.240;2024-02-14T09:59:21;11.30;99.90
21559;DHT22;10940;48.890;8.240;2024-02-14T10:01:47;11.40;99.90
21559;DHT22;10940;48.890;8.240;2024-02-14T10:04:14;11.40;99.90
21559;DHT22;10940;48.890;8.240;2024-02-14T10:06:40;11.50;99.90
21559;DHT22;10940;48.890;8.240;2024-02-14T10:09:07;11.50;99.90
21559;DHT22;10940;48.890;8.240;2024-02-14T10:11:33;11.50;99.90
21559;DHT22;10940;48.890;8.240;2024-02-14T10:13:58;11.50;99.90
21559;DHT22;10940;48.890;8.240;2024-02-14T10:16:29;11.50;99.90
21559;DHT22;10940;48.890;8.240;2024-02-14T10:18:55;11.50;99.90
21559;DHT22;10940;48.890;8.240;2024-02-14T10:21:21;11.50;99.90
21559;DHT22;10940;48.890;8.240;2024-02-14T10:23:48;11.50;99.90
21559;DHT22;10940;48.890;8.240;2024-02-14T10:26:17;11.50;99.90
21559;DHT22;10940;48.890;8.240;2024-02-14T10:28:44;11.50;99.90
21559;DHT22;10940;48.890;8.240;2024-02-14T10:31:12;11.60;99.90
21559;DHT22;10940;48.890;8.240;2024-02-14T10:33:38;11.60;99.90
21559;DHT22;10940;48.890;8.240;2024-02-14T10:36:07;11.60;99.90
21559;DHT22;10940;48.890;8.240;2024-02-14T10:38:34;11.60;99.90
21559;DHT22;10940;48.890;8.240;2024-02-14T10:41:01;11.70;99.90
21559;DHT22;10940;48.890;8.240;2024-02-14T10:43:27;11.60;99.90
21559;DHT22;10940;48.890;8.240;2024-02-14T10:45:58;11.80;99.90
21559;DHT22;10940;48.890;8.240;2024-02-14T10:48:24;11.90;99.90
21559;DHT22;10940;48.890;8.240;2024-02-14T10:50:53;11.90;99.90
21559;DHT22;10940;48.890;8.240;2024-02-14T10:53:19;12.00;99.90
21559;DHT22;10940;48.890;8.240;2024-02-14T10:55:49;12.00;99.90
21559;DHT22;10940;48.890;8.240;2024-02-14T10:58:18;12.10;99.90
21559;DHT22;10940;48.890;8.240;2024-02-14T11:00:45;12.10;99.90
21559;DHT22;10940;48.890;8.240;2024-02-14T11:03:11;12.20;99.90
21559;DHT22;10940;48.890;8.240;2024-02-14T11:05:47;12.20;99.90
21559;DHT22;10940;48.890;8.240;2024-02-14T11:08:14;12.30;99.90
21559;DHT22;10940;48.890;8.240;2024-02-14T11:10:40;12.30;99.90
21559;DHT22;10940;48.890;8.240;2024-02-14T11:13:12;12.40;99.90
21559;DHT22;10940;48.890;8.240;2024-02-14T11:15:38;12.50;99.90
21559;DHT22;10940;48.890;8.240;2024-02-14T11:18:06;12.50;99.90
21559;DHT22;10940;48.890;8.240;2024-02-14T11:20:36;12.50;99.90
21559;DHT22;10940;48.890;8.240;2024-02-14T11:23:03;12.50;99.90
21559;DHT22;10940;48.890;8.240;2024-02-14T11:25:31;12.60;99.90
21559;DHT22;10940;48.890;8.240;2024-02-14T11:27:58;12.60;99.90
21559;DHT22;10940;48.890;8.240;2024-02-14T11:30:43;12.80;99.90
21559;DHT22;10940;48.890;8.240;2024-02-14T11:33:19;12.90;99.90
21559;DHT22;10940;48.890;8.240;2024-02-14T11:35:47;13.00;99.90
21559;DHT22;10940;48.890;8.240;2024-02-14T11:38:13;13.10;99.90
21559;DHT22;10940;48.890;8.240;2024-02-14T11:40:39;13.30;99.90
21559;DHT22;10940;48.890;8.240;2024-02-14T11:43:13;13.50;99.90
21559;DHT22;10940;48.890;8.240;2024-02-14T11:45:41;13.60;99.90
21559;DHT22;10940;48.890;8.240;2024-02-14T11:48:12;13.70;99.90
21559;DHT22;10940;48.890;8.240;2024-02-14T11:50:42;13.80;99.90
21559;DHT22;10940;48.890;8.240;2024-02-14T11:53:12;13.90;99.90
21559;DHT22;10940;48.890;8.240;2024-02-14T11:55:39;14.00;99.90
21559;DHT22;10940;48.890;8.240;2024-02-14T11:58:12;14.00;99.90
21559;DHT22;10940;48.890;8.240;2024-02-14T12:00:39;14.00;99.90
21559;DHT22;10940;48.890;8.240;2024-02-14T12:03:21;13.80;99.90
21559;DHT22;10940;48.890;8.240;2024-02-14T12:05:49;13.90;99.90
21559;DHT22;10940;48.890;8.240;2024-02-14T12:08:16;13.90;99.90
21559;DHT22;10940;48.890;8.240;2024-02-14T12:10:45;13.90;99.90
21559;DHT22;10940;48.890;8.240;2024-02-14T12:13:21;13.90;99.90
21559;DHT22;10940;48.890;8.240;2024-02-14T12:15:48;13.90;99.90
21559;DHT22;10940;48.890;8.240;2024-02-14T12:18:14;13.80;99.90
21559;DHT22;10940;48.890;8.240;2024-02-14T12:20:41;13.60;99.90
21559;DHT22;10940;48.890;8.240;2024-02-14T12:23:06;13.60;99.90
21559;DHT22;10940;48.890;8.240;2024-02-14T12:25:33;13.60;99.90
21559;DHT22;10940;48.890;8.240;2024-02-14T12:27:59;13.50;99.90
21559;DHT22;10940;48.890;8.240;2024-02-14T12:30:45;13.50;99.90
21559;DHT22;10940;48.890;8.240;2024-02-14T12:33:12;13.60;99.90
21559;DHT22;10940;48.890;8.240;2024-02-14T12:35:45;13.70;99.90
21559;DHT22;10940;48.890;8.240;2024-02-14T12:38:12;13.70;99.90
21559;DHT22;10940;48.890;8.240;2024-02-14T12:40:39;13.80;99.90
21559;DHT22;10940;48.890;8.240;2024-02-14T12:43:12;13.90;99.90
21559;DHT22;10940;48.890;8.240;2024-02-14T12:45:39;14.00;99.90
21559;DHT22;10940;48.890;8.240;2024-02-14T12:48:06;14.10;99.90
21559;DHT22;10940;48.890;8.240;2024-02-14T12:50:34;14.10;99.90
21559;DHT22;10940;48.890;8.240;2024-02-14T12:53:01;14.20;99.90
21559;DHT22;10940;48.890;8.240;2024-02-14T12:55:27;14.10;99.90
21559;DHT22;10940;48.890;8.240;2024-02-14T12:57:54;14.10;99.90
21559;DHT22;10940;48.890;8.240;2024-02-14T13:00:20;14.10;99.90
21559;DHT22;10940;48.890;8.240;2024-02-14T13:02:47;14.00;99.90
21559;DHT22;10940;48.890;8.240;2024-02-14T13:05:13;13.90;99.90
21559;DHT22;10940;48.890;8.240;2024-02-14T13:07:40;13.90;99.90
21559;DHT22;10940;48.890;8.240;2024-02-14T13:10:06;13.80;99.90
21559;DHT22;10940;48.890;8.240;2024-02-14T13:12:35;13.80;99.90
21559;DHT22;10940;48.890;8.240;2024-02-14T13:15:01;13.80;99.90
21559;DHT22;10940;48.890;8.240;2024-02-14T13:17:26;13.80;99.90
21559;DHT22;10940;48.890;8.240;2024-02-14T13:19:52;13.80;99.90
21559;DHT22;10940;48.890;8.240;2024-02-14T13:22:19;13.90;99.90
21559;DHT22;10940;48.890;8.240;2024-02-14T13:24:44;13.90;99.90
21559;DHT22;10940;48.890;8.240;2024-02-14T13:27:10;13.90;99.90
21559;DHT22;10940;48.890;8.240;2024-02-14T13:29:36;13.90;99.90
21559;DHT22;10940;48.890;8.240;2024-02-14T13:32:01;14.00;99.90
21559;DHT22;10940;48.890;8.240;2024-02-14T13:34:28;14.00;99.90
21559;DHT22;10940;48.890;8.240;2024-02-14T13:36:54;14.00;99.90
21559;DHT22;10940;48.890;8.240;2024-02-14T13:39:22;14.10;99.90
21559;DHT22;10940;48.890;8.240;2024-02-14T13:41:47;14.10;99.90
21559;DHT22;10940;48.890;8.240;2024-02-14T13:44:13;14.10;99.90
21559;DHT22;10940;48.890;8.240;2024-02-14T13:46:44;14.10;99.90
21559;DHT22;10940;48.890;8.240;2024-02-14T13:49:11;14.10;99.90
21559;DHT22;10940;48.890;8.240;2024-02-14T13:51:37;14.10;99.90
21559;DHT22;10940;48.890;8.240;2024-02-14T13:54:03;14.10;99.90
21559;DHT22;10940;48.890;8.240;2024-02-14T13:56:29;14.10;99.90
21559;DHT22;10940;48.890;8.240;2024-02-14T13:58:55;14.10;99.90
21559;DHT22;10940;48.890;8.240;2024-02-14T14:01:21;14.10;99.90
21559;DHT22;10940;48.890;8.240;2024-02-14T14:03:46;14.10;99.90
21559;DHT22;10940;48.890;8.240;2024-02-14T14:06:13;14.10;99.90
21559;DHT22;10940;48.890;8.240;2024-02-14T14:08:39;14.10;99.90
21559;DHT22;10940;48.890;8.240;2024-02-14T14:11:05;14.10;99.90
21559;DHT22;10940;48.890;8.240;2024-02-14T14:13:31;14.10;99.90
21559;DHT22;10940;48.890;8.240;2024-02-14T14:15:59;14.10;99.90
21559;DHT22;10940;48.890;8.240;2024-02-14T14:18:25;14.00;99.90
21559;DHT22;10940;48.890;8.240;2024-02-14T14:20:51;14.00;99.90
21559;DHT22;10940;48.890;8.240;2024-02-14T14:23:17;14.00;99.90
21559;DHT22;10940;48.890;8.240;2024-02-14T14:25:43;14.00;99.90
21559;DHT22;10940;48.890;8.240;2024-02-14T14:28:10;14.00;99.90
21559;DHT22;10940;48.890;8.240;2024-02-14T14:30:36;14.00;99.90
21559;DHT22;10940;48.890;8.240;2024-02-14T14:33:02;14.00;99.90
21559;DHT22;10940;48.890;8.240;2024-02-14T14:35:29;14.00;99.90
21559;DHT22;10940;48.890;8.240;2024-02-14T14:38:04;14.00;99.90
21559;DHT22;10940;48.890;8.240;2024-02-14T14:40:30;14.00;99.90
21559;DHT22;10940;48.890;8.240;2024-02-14T14:42:56;14.00;99.90
21559;DHT22;10940;48.890;8.240;2024-02-14T14:45:22;14.00;99.90
21559;DHT22;10940;48.890;8.240;2024-02-14T14:47:47;14.00;99.90
21559;DHT22;10940;48.890;8.240;2024-02-14T14:50:14;14.00;99.90
21559;DHT22;10940;48.890;8.240;2024-02-14T14:52:41;14.00;99.90
21559;DHT22;10940;48.890;8.240;2024-02-14T14:55:09;13.90;99.90
21559;DHT22;10940;48.890;8.240;2024-02-14T14:57:35;13.90;99.90
21559;DHT22;10940;48.890;8.240;2024-02-14T15:00:08;13.90;99.90
21559;DHT22;10940;48.890;8.240;2024-02-14T15:02:39;13.90;99.90
21559;DHT22;10940;48.890;8.240;2024-02-14T15:05:08;13.80;99.90
21559;DHT22;10940;48.890;8.240;2024-02-14T15:07:33;13.90;99.90
21559;DHT22;10940;48.890;8.240;2024-02-14T15:09:59;13.80;99.90
21559;DHT22;10940;48.890;8.240;2024-02-14T15:12:24;13.80;99.90
21559;DHT22;10940;48.890;8.240;2024-02-14T15:14:52;13.80;99.90
21559;DHT22;10940;48.890;8.240;2024-02-14T15:17:18;13.80;99.90
21559;DHT22;10940;48.890;8.240;2024-02-14T15:19:45;13.70;99.90
21559;DHT22;10940;48.890;8.240;2024-02-14T15:22:10;13.70;99.90
21559;DHT22;10940;48.890;8.240;2024-02-14T15:24:36;13.80;99.90
21559;DHT22;10940;48.890;8.240;2024-02-14T15:27:04;13.80;99.90
21559;DHT22;10940;48.890;8.240;2024-02-14T15:29:31;13.80;99.90
21559;DHT22;10940;48.890;8.240;2024-02-14T15:32:16;13.80;99.90
21559;DHT22;10940;48.890;8.240;2024-02-14T15:35:00;13.80;99.90
21559;DHT22;10940;48.890;8.240;2024-02-14T15:37:26;13.80;99.90